createdAt,value
2022-08-12T00:00:50.119Z,74.50
2022-08-12T00:03:35.525Z,74.60
2022-08-12T00:06:22.141Z,74.70
2022-08-12T00:09:07.614Z,74.80
2022-08-12T00:11:53.409Z,75.00
2022-08-12T00:14:38.914Z,75.00
2022-08-12T00:17:24.235Z,75.10
2022-08-12T00:20:10.462Z,75.10
2022-08-12T00:22:59.169Z,75.30
2022-08-12T00:26:20.494Z,75.30
2022-08-12T00:29:08.862Z,75.40
2022-08-12T00:31:54.227Z,75.30
2022-08-12T00:34:39.764Z,75.50
2022-08-12T00:37:25.496Z,75.50
2022-08-12T00:40:13.649Z,75.50
2022-08-12T00:42:42.017Z,75.60
2022-08-12T00:45:09.692Z,76.30
2022-08-12T00:47:38.411Z,75.60
2022-08-12T00:50:06.734Z,75.60
2022-08-12T00:52:34.981Z,75.60
2022-08-12T00:55:04.345Z,75.60
2022-08-12T00:57:35.735Z,75.70
2022-08-12T01:00:32.127Z,75.70
2022-08-12T01:02:59.864Z,75.70
2022-08-12T01:05:45.347Z,75.80
2022-08-12T01:08:47.860Z,75.70
2022-08-12T01:11:32.726Z,75.70
2022-08-12T01:14:01.379Z,75.80
2022-08-12T01:16:29.207Z,75.70
2022-08-12T01:18:57.858Z,75.90
2022-08-12T01:21:27.269Z,75.90
2022-08-12T01:24:30.132Z,75.90
2022-08-12T01:26:56.762Z,75.90
2022-08-12T01:29:27.447Z,76.00
2022-08-12T01:31:59.122Z,76.10
2022-08-12T01:34:36.498Z,76.10
2022-08-12T01:37:07.161Z,76.10
2022-08-12T01:40:34.314Z,76.20
2022-08-12T01:42:51.045Z,76.30
2022-08-12T01:45:24.336Z,76.40
2022-08-12T01:48:23.799Z,76.40
2022-08-12T01:51:00.366Z,76.40
2022-08-12T01:53:50.952Z,76.50
2022-08-12T01:56:22.048Z,76.60
2022-08-12T01:59:12.141Z,76.80
2022-08-12T02:01:41.530Z,76.90
2022-08-12T02:04:42.543Z,76.90
2022-08-12T02:07:43.264Z,76.90
2022-08-12T02:10:50.565Z,76.90
2022-08-12T02:13:52.419Z,77.00
2022-08-12T02:16:51.060Z,76.90
2022-08-12T02:19:27.541Z,76.90
2022-08-12T02:22:21.515Z,76.90
2022-08-12T02:24:50.765Z,76.90
2022-08-12T02:27:19.778Z,76.90
2022-08-12T02:29:48.161Z,76.80
2022-08-12T02:32:15.129Z,76.80
2022-08-12T02:34:44.465Z,76.90
2022-08-12T02:37:15.316Z,77.00
2022-08-12T02:39:49.104Z,77.90
2022-08-12T02:42:19.062Z,77.30
2022-08-12T02:44:50.798Z,77.50
2022-08-12T02:47:59.161Z,77.60
2022-08-12T02:50:09.681Z,78.40
2022-08-12T02:52:37.419Z,77.60
2022-08-12T02:55:28.723Z,77.70
2022-08-12T02:58:01.019Z,77.80
2022-08-12T03:00:34.982Z,77.90
2022-08-12T03:03:05.590Z,77.90
2022-08-12T03:05:42.111Z,78.10
2022-08-12T03:08:20.199Z,78.20
2022-08-12T03:11:15.683Z,78.20
2022-08-12T03:13:46.790Z,78.40
2022-08-12T03:16:14.684Z,78.40
2022-08-12T03:18:46.361Z,78.50
2022-08-12T03:21:16.909Z,78.50
2022-08-12T03:23:45.788Z,78.70
2022-08-12T03:26:14.578Z,78.70
2022-08-12T03:28:51.144Z,78.70
2022-08-12T03:31:29.830Z,78.70
2022-08-12T03:34:08.908Z,78.70
2022-08-12T03:36:38.148Z,78.70
2022-08-12T03:39:16.895Z,78.70
2022-08-12T03:41:55.086Z,78.80
2022-08-12T03:44:56.611Z,78.90
2022-08-12T03:47:51.211Z,79.00
2022-08-12T03:50:38.095Z,79.10
2022-08-12T03:53:26.416Z,79.10
2022-08-12T03:56:11.962Z,79.30
2022-08-12T03:58:57.882Z,79.40
2022-08-12T04:01:26.805Z,79.40
2022-08-12T04:03:54.072Z,79.40
2022-08-12T04:06:34.323Z,79.40
2022-08-12T04:09:05.102Z,79.60
2022-08-12T04:12:00.102Z,79.90
2022-08-12T04:14:27.904Z,80.20
2022-08-12T04:16:57.309Z,80.30
2022-08-12T04:19:25.997Z,80.40
2022-08-12T04:22:02.955Z,80.30
2022-08-12T04:24:35.883Z,80.50
2022-08-12T04:27:09.470Z,80.60
2022-08-12T04:30:31.895Z,80.60
2022-08-12T04:32:25.770Z,80.60
2022-08-12T04:34:52.810Z,80.60
2022-08-12T04:37:19.880Z,80.80
2022-08-12T04:39:47.309Z,80.90
2022-08-12T04:42:14.315Z,81.10
2022-08-12T04:44:42.113Z,81.10
2022-08-12T04:47:15.178Z,81.30
2022-08-12T04:49:44.514Z,81.30
2022-08-12T04:52:11.235Z,81.30
2022-08-12T04:54:38.565Z,81.40
2022-08-12T04:57:06.013Z,81.40
2022-08-12T04:59:48.157Z,81.40
2022-08-12T05:02:21.613Z,81.40
2022-08-12T05:04:51.125Z,81.60
2022-08-12T05:07:18.064Z,81.70
2022-08-12T05:09:59.949Z,81.70
2022-08-12T05:12:34.087Z,81.80
2022-08-12T05:15:01.008Z,81.80
2022-08-12T05:17:28.237Z,81.90
2022-08-12T05:19:57.191Z,81.90
2022-08-12T05:22:27.616Z,81.80
2022-08-12T05:24:54.833Z,81.90
2022-08-12T05:27:22.775Z,81.80
2022-08-12T05:30:08.162Z,81.90
2022-08-12T05:32:36.411Z,81.90
2022-08-12T05:35:06.246Z,82.00
2022-08-12T05:37:36.082Z,81.90
2022-08-12T05:40:09.960Z,82.00
2022-08-12T05:42:37.755Z,82.00
2022-08-12T05:45:04.947Z,81.80
2022-08-12T05:47:44.883Z,81.60
2022-08-12T05:50:19.362Z,81.40
2022-08-12T05:52:46.029Z,81.50
2022-08-12T05:55:15.023Z,81.30
2022-08-12T05:57:41.676Z,81.30
2022-08-12T06:00:08.736Z,81.20
2022-08-12T06:02:35.654Z,81.30
2022-08-12T06:05:02.840Z,81.30
2022-08-12T06:07:59.970Z,81.30
2022-08-12T06:10:17.631Z,81.40
2022-08-12T06:12:59.158Z,81.40
2022-08-12T06:15:25.803Z,81.50
2022-08-12T06:17:52.842Z,81.50
2022-08-12T06:20:26.635Z,81.50
2022-08-12T06:22:55.382Z,81.70
2022-08-12T06:25:22.346Z,81.80
2022-08-12T06:28:06.769Z,82.00
2022-08-12T06:30:38.673Z,81.90
2022-08-12T06:33:18.475Z,82.20
2022-08-12T06:35:50.221Z,82.20
2022-08-12T06:38:23.061Z,82.30
2022-08-12T06:41:11.764Z,82.50
2022-08-12T06:44:04.933Z,82.40
2022-08-12T06:46:36.011Z,82.50
2022-08-12T06:49:02.688Z,82.70
2022-08-12T06:51:32.075Z,82.60
2022-08-12T06:54:00.864Z,82.70
2022-08-12T06:56:59.641Z,82.80
2022-08-12T06:59:21.125Z,82.80
2022-08-12T07:01:50.810Z,82.90
2022-08-12T07:04:36.898Z,82.80
2022-08-12T07:07:07.361Z,82.90
2022-08-12T07:10:01.168Z,83.00
2022-08-12T07:12:21.861Z,82.90
2022-08-12T07:14:51.721Z,82.80
2022-08-12T07:17:18.795Z,82.80
2022-08-12T07:19:47.045Z,82.70
2022-08-12T07:22:16.447Z,82.90
2022-08-12T07:24:43.224Z,82.90
2022-08-12T07:27:10.061Z,83.10
2022-08-12T07:29:57.958Z,82.80
2022-08-12T07:32:25.497Z,82.90
2022-08-12T07:34:56.835Z,82.60
2022-08-12T07:37:25.086Z,82.60
2022-08-12T07:40:00.280Z,82.30
2022-08-12T07:42:29.289Z,82.00
2022-08-12T07:44:56.377Z,81.70
2022-08-12T07:47:23.701Z,81.70
2022-08-12T07:50:03.273Z,81.70
2022-08-12T07:52:42.069Z,81.70
2022-08-12T07:55:10.272Z,81.70
2022-08-12T07:57:49.921Z,81.50
2022-08-12T08:00:30.493Z,81.40
2022-08-12T08:03:08.283Z,81.40
2022-08-12T08:05:54.624Z,81.50
2022-08-12T08:08:26.685Z,81.70
2022-08-12T08:11:17.851Z,81.80
2022-08-12T08:13:46.017Z,82.00
2022-08-12T08:16:15.185Z,82.10
2022-08-12T08:18:43.509Z,82.20
2022-08-12T08:21:10.997Z,81.70
2022-08-12T08:23:58.890Z,81.70
2022-08-12T08:26:32.558Z,81.90
2022-08-12T08:28:59.697Z,81.50
2022-08-12T08:31:26.338Z,81.50
2022-08-12T08:34:09.214Z,81.50
2022-08-12T08:36:41.759Z,81.40
2022-08-12T08:39:09.486Z,81.40
2022-08-12T08:42:17.302Z,81.60
2022-08-12T08:44:43.052Z,81.70
2022-08-12T08:47:13.389Z,81.50
2022-08-12T08:49:41.092Z,81.50
2022-08-12T08:52:10.640Z,81.40
2022-08-12T08:54:38.045Z,81.40
2022-08-12T08:57:08.111Z,81.30
2022-08-12T08:59:35.127Z,81.20
2022-08-12T09:02:02.528Z,80.90
2022-08-12T09:05:11.867Z,81.60
2022-08-12T09:07:51.022Z,80.90
2022-08-12T09:10:09.296Z,80.40
2022-08-12T09:13:08.602Z,80.70
2022-08-12T09:18:41.206Z,80.10
2022-08-12T09:21:15.510Z,79.90
2022-08-12T09:26:30.105Z,79.40
2022-08-12T09:28:58.055Z,79.00
2022-08-12T09:32:04.292Z,79.00
2022-08-12T09:34:25.242Z,79.20
2022-08-12T09:37:02.866Z,79.10
2022-08-12T09:40:05.114Z,79.30
2022-08-12T09:43:04.919Z,79.10
2022-08-12T09:46:20.332Z,78.80
2022-08-12T09:48:24.891Z,77.20
2022-08-12T09:50:55.187Z,77.20
2022-08-12T09:53:29.527Z,77.50
2022-08-12T09:57:00.627Z,77.20
2022-08-12T09:58:59.915Z,76.80
2022-08-12T10:01:35.265Z,77.30
2022-08-12T10:04:19.872Z,77.50
2022-08-12T10:06:54.358Z,77.50
2022-08-12T10:09:56.831Z,77.00
2022-08-12T10:12:32.863Z,76.80
2022-08-12T10:16:00.885Z,76.80
2022-08-12T10:18:06.885Z,75.80
2022-08-12T10:20:34.592Z,75.40
2022-08-12T10:23:01.940Z,75.30
2022-08-12T10:26:18.284Z,75.60
2022-08-12T10:29:02.567Z,75.20
2022-08-12T10:32:19.521Z,75.10
2022-08-12T10:34:25.885Z,74.90
2022-08-12T10:36:58.621Z,74.60
2022-08-12T10:40:01.942Z,74.80
2022-08-12T10:42:39.769Z,74.00
2022-08-12T10:45:14.344Z,74.10
2022-08-12T10:48:01.598Z,74.60
2022-08-12T10:50:58.614Z,74.90
2022-08-12T10:53:43.688Z,75.30
2022-08-12T10:56:09.413Z,74.90
2022-08-12T10:58:36.934Z,74.90
2022-08-12T11:01:49.097Z,74.90
2022-08-12T11:04:22.846Z,74.90
2022-08-12T11:07:05.237Z,74.60
2022-08-12T11:09:42.021Z,75.00
2022-08-12T11:12:55.254Z,75.20
2022-08-12T11:15:19.411Z,75.30
2022-08-12T11:17:53.829Z,75.30
2022-08-12T11:20:24.449Z,75.40
2022-08-12T11:23:04.316Z,75.50
2022-08-12T11:25:56.020Z,74.90
2022-08-12T11:28:34.685Z,75.00
2022-08-12T11:31:04.740Z,75.20
2022-08-12T11:34:04.319Z,75.30
2022-08-12T11:36:21.755Z,75.30
2022-08-12T11:38:50.471Z,75.50
2022-08-12T11:41:31.878Z,75.70
2022-08-12T11:44:35.529Z,75.70
2022-08-12T11:46:54.500Z,75.40
2022-08-12T11:49:31.189Z,74.50
2022-08-12T11:52:01.814Z,73.30
2022-08-12T11:54:29.664Z,74.10
2022-08-12T11:56:59.592Z,74.20
2022-08-12T12:02:20.593Z,73.40
2022-08-12T12:04:52.108Z,73.50
2022-08-12T12:08:36.247Z,73.30
2022-08-12T12:10:16.138Z,73.00
2022-08-12T12:12:50.086Z,72.10
2022-08-12T12:15:25.182Z,71.60
2022-08-12T12:17:55.883Z,71.80
2022-08-12T12:20:26.045Z,72.10
2022-08-12T12:22:57.202Z,72.10
2022-08-12T12:26:06.585Z,71.70
2022-08-12T12:28:36.789Z,71.50
2022-08-12T12:30:57.909Z,71.80
2022-08-12T12:33:26.237Z,71.10
2022-08-12T12:36:20.339Z,71.30
2022-08-12T12:38:49.789Z,71.30
2022-08-12T12:41:17.245Z,70.80
2022-08-12T12:43:44.986Z,70.90
2022-08-12T12:46:23.373Z,70.90
2022-08-12T12:48:50.056Z,71.20
2022-08-12T12:51:48.987Z,71.20
2022-08-12T12:54:06.144Z,71.20
2022-08-12T12:56:40.598Z,71.20
2022-08-12T12:59:56.390Z,71.30
2022-08-12T13:01:55.539Z,71.40
2022-08-12T13:04:22.487Z,71.40
2022-08-12T13:06:51.976Z,71.40
2022-08-12T13:09:22.102Z,71.20
2022-08-12T13:11:53.287Z,71.10
2022-08-12T13:14:28.100Z,71.30
2022-08-12T13:16:57.424Z,71.00
2022-08-12T13:19:36.588Z,70.80
2022-08-12T13:22:19.952Z,70.50
2022-08-12T13:24:55.685Z,70.10
2022-08-12T13:27:50.674Z,70.00
2022-08-12T13:30:20.366Z,70.30
2022-08-12T13:32:58.713Z,70.40
2022-08-12T13:35:33.292Z,70.70
2022-08-12T13:38:02.660Z,71.20
2022-08-12T13:40:33.137Z,71.20
2022-08-12T13:43:01.730Z,71.20
2022-08-12T13:45:30.970Z,71.00
2022-08-12T13:48:02.029Z,70.60
2022-08-12T13:50:32.731Z,70.60
2022-08-12T13:53:23.163Z,70.50
2022-08-12T13:55:59.335Z,70.10
2022-08-12T13:58:28.340Z,70.20
2022-08-12T14:00:58.097Z,70.20
2022-08-12T14:03:28.588Z,70.20
2022-08-12T14:06:15.584Z,70.40
2022-08-12T14:08:43.159Z,70.30
2022-08-12T14:11:12.497Z,70.10
2022-08-12T14:14:05.978Z,70.30
2022-08-12T14:16:37.916Z,70.30
2022-08-12T14:19:24.241Z,70.30
2022-08-12T14:21:59.595Z,69.40
2022-08-12T14:24:31.483Z,69.80
2022-08-12T14:27:01.973Z,70.00
2022-08-12T14:29:38.114Z,69.90
2022-08-12T14:32:17.360Z,69.70
2022-08-12T14:34:47.213Z,69.70
2022-08-12T14:37:55.440Z,69.50
2022-08-12T14:40:01.140Z,69.40
2022-08-12T14:42:54.419Z,69.50
2022-08-12T14:45:23.022Z,70.20
2022-08-12T14:47:53.636Z,71.30
2022-08-12T14:50:58.743Z,70.80
2022-08-12T14:55:18.159Z,70.60
2022-08-12T14:59:23.422Z,70.00
2022-08-12T15:01:52.028Z,69.80
2022-08-12T15:04:28.677Z,69.80
2022-08-12T15:06:56.114Z,69.70
2022-08-12T15:09:29.255Z,69.80
2022-08-12T15:12:03.296Z,69.80
2022-08-12T15:14:32.109Z,69.90
2022-08-12T15:17:02.588Z,69.60
2022-08-12T15:20:28.500Z,69.40
2022-08-12T15:22:37.479Z,69.00
2022-08-12T15:25:07.544Z,68.80
2022-08-12T15:28:10.929Z,68.50
2022-08-12T15:30:30.762Z,68.40
2022-08-12T15:32:57.591Z,68.60
2022-08-12T15:35:38.147Z,68.10
2022-08-12T15:38:19.455Z,67.80
2022-08-12T15:40:55.441Z,67.40
2022-08-12T15:44:14.103Z,67.00
2022-08-12T15:46:15.951Z,66.80
2022-08-12T15:48:47.605Z,66.90
2022-08-12T15:51:58.480Z,67.10
2022-08-12T15:54:33.276Z,67.20
2022-08-12T15:57:05.529Z,67.30
2022-08-12T16:00:00.777Z,66.90
2022-08-12T16:02:19.695Z,66.80
2022-08-12T16:04:50.313Z,66.80
2022-08-12T16:07:26.041Z,66.80
2022-08-12T16:10:08.508Z,66.80
2022-08-12T16:12:42.063Z,67.20
2022-08-12T16:15:15.100Z,68.10
2022-08-12T16:18:15.039Z,67.10
2022-08-12T16:20:33.987Z,66.80
2022-08-12T16:23:35.868Z,66.20
2022-08-12T16:26:05.234Z,65.60
2022-08-12T16:28:33.566Z,66.30
2022-08-12T16:31:01.937Z,66.60
2022-08-12T16:33:59.763Z,67.10
2022-08-12T16:36:25.466Z,67.30
2022-08-12T16:38:52.342Z,67.90
2022-08-12T16:41:19.021Z,67.80
2022-08-12T16:43:46.599Z,67.30
2022-08-12T16:46:31.432Z,67.10
2022-08-12T16:49:04.115Z,66.30
2022-08-12T16:51:40.497Z,65.50
2022-08-12T16:54:12.714Z,65.00
2022-08-12T16:56:50.953Z,64.60
2022-08-12T16:59:21.787Z,64.20
2022-08-12T17:01:49.556Z,64.00
2022-08-12T17:04:17.495Z,64.10
2022-08-12T17:06:47.919Z,64.60
2022-08-12T17:09:16.914Z,64.40
2022-08-12T17:11:49.385Z,64.30
2022-08-12T17:14:20.327Z,64.00
2022-08-12T17:16:51.843Z,64.70
2022-08-12T17:19:20.611Z,65.10
2022-08-12T17:22:09.711Z,64.90
2022-08-12T17:24:43.754Z,64.70
2022-08-12T17:27:15.858Z,64.60
2022-08-12T17:30:02.630Z,64.40
2022-08-12T17:32:33.546Z,64.40
2022-08-12T17:35:19.765Z,64.50
2022-08-12T17:37:48.588Z,64.10
2022-08-12T17:40:34.729Z,63.60
2022-08-12T17:43:57.703Z,63.40
2022-08-12T17:45:59.054Z,63.10
2022-08-12T17:48:34.306Z,62.80
2022-08-12T17:51:06.848Z,62.60
2022-08-12T17:54:05.487Z,62.60
2022-08-12T17:56:23.322Z,63.00
2022-08-12T17:58:58.675Z,63.10
2022-08-12T18:01:25.808Z,63.30
2022-08-12T18:04:21.595Z,63.50
2022-08-12T18:06:49.181Z,63.50
2022-08-12T18:09:17.793Z,63.70
2022-08-12T18:12:07.946Z,63.90
2022-08-12T18:14:38.154Z,63.80
2022-08-12T18:17:09.784Z,64.10
2022-08-12T18:20:05.283Z,64.00
2022-08-12T18:22:40.768Z,64.80
2022-08-12T18:26:11.537Z,65.50
2022-08-12T18:28:16.009Z,66.40
2022-08-12T18:30:52.390Z,67.20
2022-08-12T18:33:24.852Z,68.00
2022-08-12T18:35:55.662Z,68.40
2022-08-12T18:38:25.361Z,68.70
2022-08-12T18:41:21.777Z,69.90
2022-08-12T18:44:10.570Z,69.30
2022-08-12T18:46:47.425Z,69.80
2022-08-12T18:49:21.592Z,70.00
2022-08-12T18:52:02.362Z,70.50
2022-08-12T18:54:35.482Z,70.70
2022-08-12T18:57:19.454Z,71.00
2022-08-12T19:00:02.130Z,71.10
2022-08-12T19:02:36.129Z,71.20
2022-08-12T19:05:10.146Z,71.30
2022-08-12T19:07:58.124Z,71.30
2022-08-12T19:10:29.991Z,71.40
2022-08-12T19:13:21.093Z,71.40
2022-08-12T19:15:53.173Z,71.30
2022-08-12T19:18:22.147Z,71.30
2022-08-12T19:20:50.734Z,71.20
2022-08-12T19:23:20.952Z,71.10
2022-08-12T19:25:59.634Z,71.10
2022-08-12T19:28:34.973Z,71.10
2022-08-12T19:31:56.252Z,71.00
2022-08-12T19:35:32.908Z,70.90
2022-08-12T19:38:03.077Z,70.90
2022-08-12T19:40:32.668Z,71.00
2022-08-12T19:43:19.495Z,71.00
2022-08-12T19:45:56.558Z,71.00
2022-08-12T19:48:27.879Z,71.10
2022-08-12T19:50:57.897Z,71.10
2022-08-12T19:53:27.647Z,71.10
2022-08-12T19:55:56.247Z,71.20
2022-08-12T19:58:26.972Z,71.20
2022-08-12T20:00:55.348Z,71.30
2022-08-12T20:03:38.907Z,71.50
2022-08-12T20:06:13.826Z,71.80
2022-08-12T20:08:48.849Z,72.10
2022-08-12T20:12:13.147Z,72.10
2022-08-12T20:14:09.665Z,72.30
2022-08-12T20:19:52.531Z,73.30
2022-08-12T20:22:24.439Z,72.60
2022-08-12T20:25:01.661Z,72.80
2022-08-12T20:28:03.007Z,72.70
2022-08-12T20:30:52.569Z,72.80
2022-08-12T20:33:18.575Z,72.80
2022-08-12T20:36:06.628Z,72.90
2022-08-12T20:38:37.228Z,72.90
2022-08-12T20:41:14.805Z,72.90
2022-08-12T20:43:43.969Z,73.00
2022-08-12T20:46:13.328Z,73.10
2022-08-12T20:48:44.240Z,73.10
2022-08-12T20:51:15.835Z,73.20
2022-08-12T20:53:54.301Z,73.20
2022-08-12T20:56:31.181Z,73.30
2022-08-12T20:58:59.815Z,73.40
2022-08-12T21:01:36.525Z,73.50
2022-08-12T21:04:31.797Z,73.50
2022-08-12T21:07:04.595Z,73.50
2022-08-12T21:09:44.120Z,73.70
2022-08-12T21:12:27.700Z,73.80
2022-08-12T21:15:17.472Z,74.00
2022-08-12T21:18:09.224Z,74.00
2022-08-12T21:20:43.113Z,74.10
2022-08-12T21:23:10.559Z,74.10
2022-08-12T21:25:44.231Z,74.10
2022-08-12T21:28:12.630Z,74.10
2022-08-12T21:31:10.899Z,74.30
2022-08-12T21:33:31.601Z,74.30
2022-08-12T21:36:00.926Z,74.30
2022-08-12T21:38:34.279Z,74.30
2022-08-12T21:41:07.008Z,74.50
2022-08-12T21:43:44.798Z,74.50
2022-08-12T21:46:35.327Z,74.60
2022-08-12T21:49:04.772Z,74.60
2022-08-12T21:51:49.017Z,74.90
2022-08-12T21:54:22.023Z,75.00
2022-08-12T21:56:52.937Z,75.10
2022-08-12T21:59:21.867Z,75.30
2022-08-12T22:01:49.610Z,75.40
2022-08-12T22:04:36.870Z,75.60
2022-08-12T22:07:06.812Z,75.70
2022-08-12T22:09:42.761Z,75.90
2022-08-12T22:12:29.014Z,75.80
2022-08-12T22:14:55.847Z,76.00
2022-08-12T22:17:33.684Z,76.10
2022-08-12T22:20:01.860Z,76.20
2022-08-12T22:22:34.136Z,76.40
2022-08-12T22:25:01.067Z,76.40
2022-08-12T22:27:32.335Z,76.30
2022-08-12T22:30:20.086Z,76.50
2022-08-12T22:32:51.513Z,76.70
2022-08-12T22:35:56.051Z,76.70
2022-08-12T22:38:26.670Z,76.70
2022-08-12T22:41:00.701Z,76.80
2022-08-12T22:44:00.982Z,76.90
2022-08-12T22:46:32.970Z,76.70
2022-08-12T22:49:00.115Z,77.60
2022-08-12T22:51:30.357Z,77.00
2022-08-12T22:54:36.033Z,77.20
2022-08-12T22:57:05.073Z,77.50
2022-08-12T22:59:51.432Z,77.50
2022-08-12T23:02:28.774Z,77.70
2022-08-12T23:04:58.080Z,77.80
2022-08-12T23:07:24.761Z,77.90
2022-08-12T23:09:51.834Z,78.10
2022-08-12T23:12:46.606Z,78.10
2022-08-12T23:15:14.358Z,78.20
2022-08-12T23:17:41.765Z,78.40
2022-08-12T23:20:11.048Z,78.30
2022-08-12T23:22:38.529Z,78.30
2022-08-12T23:25:07.956Z,78.30
2022-08-12T23:28:06.400Z,78.40
2022-08-12T23:30:58.595Z,78.50
2022-08-12T23:34:00.229Z,78.50
2022-08-12T23:36:31.894Z,78.50
2022-08-12T23:40:13.261Z,78.70
2022-08-12T23:42:17.654Z,78.80
2022-08-12T23:44:47.070Z,78.80
2022-08-12T23:47:16.228Z,79.00
2022-08-12T23:49:56.207Z,79.10
2022-08-12T23:52:28.546Z,80.10
2022-08-12T23:55:05.045Z,79.40
2022-08-12T23:58:18.064Z,79.50
